createdAt,value
2018-07-31T00:01:56.274Z,20.40
2018-07-31T00:04:24.967Z,20.40
2018-07-31T00:06:53.334Z,20.40
2018-07-31T00:11:50.417Z,20.20
2018-07-31T00:14:20.229Z,20.20
2018-07-31T00:16:50.402Z,20.20
2018-07-31T00:19:19.359Z,20.20
2018-07-31T00:21:47.967Z,20.10
2018-07-31T00:24:17.075Z,20.10
2018-07-31T00:26:45.522Z,20.00
2018-07-31T00:29:14.208Z,19.90
2018-07-31T00:31:42.947Z,19.90
2018-07-31T00:34:11.318Z,19.90
2018-07-31T00:36:39.730Z,19.80
2018-07-31T00:39:09.590Z,19.80
2018-07-31T00:41:38.635Z,19.80
2018-07-31T00:44:06.995Z,19.80
2018-07-31T00:46:35.547Z,19.60
2018-07-31T00:49:04.008Z,19.70
2018-07-31T00:51:33.199Z,19.60
2018-07-31T00:54:01.874Z,19.60
2018-07-31T00:56:30.506Z,19.60
2018-07-31T00:58:59.426Z,19.60
2018-07-31T01:01:28.140Z,19.60
2018-07-31T01:03:56.510Z,19.50
2018-07-31T01:06:28.468Z,19.50
2018-07-31T01:08:57.267Z,19.30
2018-07-31T01:11:25.642Z,19.30
2018-07-31T01:13:54.279Z,19.20
2018-07-31T01:16:23.525Z,19.20
2018-07-31T01:18:52.251Z,19.20
2018-07-31T01:21:20.690Z,19.20
2018-07-31T01:23:49.651Z,19.20
2018-07-31T01:26:18.263Z,19.20
2018-07-31T01:28:47.255Z,19.20
2018-07-31T01:31:15.659Z,19.20
2018-07-31T01:33:44.627Z,19.20
2018-07-31T01:36:13.223Z,19.10
2018-07-31T01:38:42.183Z,18.90
2018-07-31T01:41:10.850Z,18.90
2018-07-31T01:46:08.163Z,18.80
2018-07-31T01:48:36.759Z,18.80
2018-07-31T01:51:05.432Z,18.80
2018-07-31T01:53:34.110Z,18.80
2018-07-31T01:56:03.103Z,18.70
2018-07-31T01:58:31.515Z,18.70
2018-07-31T02:01:00.218Z,18.60
2018-07-31T02:03:28.927Z,18.70
2018-07-31T02:05:57.342Z,18.70
2018-07-31T02:08:25.791Z,18.70
2018-07-31T02:10:55.359Z,18.70
2018-07-31T02:13:25.280Z,18.70
2018-07-31T02:15:54.231Z,18.70
2018-07-31T02:18:22.858Z,18.70
2018-07-31T02:20:51.491Z,18.70
2018-07-31T02:23:20.184Z,18.70
2018-07-31T02:25:48.581Z,18.60
2018-07-31T02:28:17.038Z,18.60
2018-07-31T02:30:45.379Z,18.60
2018-07-31T02:33:14.107Z,18.50
2018-07-31T02:35:42.791Z,18.60
2018-07-31T02:38:11.499Z,18.60
2018-07-31T02:40:39.931Z,18.50
2018-07-31T02:43:08.846Z,18.50
2018-07-31T02:45:37.247Z,18.40
2018-07-31T02:48:06.214Z,18.30
2018-07-31T02:50:34.632Z,18.20
2018-07-31T02:53:03.019Z,18.10
2018-07-31T02:55:31.683Z,18.10
2018-07-31T02:58:00.034Z,18.00
2018-07-31T03:00:28.717Z,17.90
2018-07-31T03:02:57.096Z,17.60
2018-07-31T03:05:26.135Z,17.50
2018-07-31T03:07:54.498Z,17.60
2018-07-31T03:10:23.355Z,17.60
2018-07-31T03:15:20.931Z,17.60
2018-07-31T03:17:49.302Z,17.60
2018-07-31T03:20:17.691Z,17.60
2018-07-31T03:22:46.088Z,17.60
2018-07-31T03:25:15.091Z,17.60
2018-07-31T03:27:43.753Z,17.60
2018-07-31T03:30:13.305Z,17.60
2018-07-31T03:32:41.678Z,17.70
2018-07-31T03:35:10.066Z,17.70
2018-07-31T03:37:38.718Z,17.70
2018-07-31T03:40:07.654Z,17.80
2018-07-31T03:45:05.217Z,17.90
2018-07-31T03:47:34.762Z,17.80
2018-07-31T03:50:03.766Z,17.70
2018-07-31T03:52:32.426Z,17.70
2018-07-31T03:55:02.781Z,17.70
2018-07-31T03:57:31.155Z,17.70
2018-07-31T03:59:59.538Z,17.60
2018-07-31T04:02:27.904Z,17.60
2018-07-31T04:04:56.583Z,17.60
2018-07-31T04:07:24.963Z,17.60
2018-07-31T04:09:53.651Z,17.70
2018-07-31T04:12:22.022Z,17.70
2018-07-31T04:14:50.711Z,17.70
2018-07-31T04:17:19.352Z,17.60
2018-07-31T04:19:48.211Z,17.50
2018-07-31T04:22:16.615Z,17.50
2018-07-31T04:24:45.002Z,17.60
2018-07-31T04:29:41.726Z,17.40
2018-07-31T04:32:10.160Z,17.40
2018-07-31T04:34:39.074Z,17.40
2018-07-31T04:37:07.579Z,17.60
2018-07-31T04:39:35.963Z,17.70
2018-07-31T04:42:04.336Z,17.80
2018-07-31T04:44:32.715Z,17.80
2018-07-31T04:47:01.371Z,17.90
2018-07-31T04:49:29.847Z,17.90
2018-07-31T04:51:58.535Z,17.90
2018-07-31T04:54:27.247Z,18.00
2018-07-31T04:56:55.594Z,18.00
2018-07-31T04:59:23.951Z,18.10
2018-07-31T05:01:52.867Z,18.10
2018-07-31T05:04:21.573Z,18.20
2018-07-31T05:06:50.306Z,18.50
2018-07-31T05:09:18.862Z,19.10
2018-07-31T05:11:47.247Z,19.90
2018-07-31T05:16:43.790Z,21.20
2018-07-31T05:19:12.225Z,21.40
2018-07-31T05:21:40.655Z,21.40
2018-07-31T05:24:09.618Z,21.50
2018-07-31T05:26:38.035Z,21.60
2018-07-31T05:29:06.668Z,22.20
2018-07-31T05:31:35.091Z,23.00
2018-07-31T05:34:03.784Z,23.50
2018-07-31T05:36:32.535Z,23.70
2018-07-31T05:39:01.575Z,24.50
2018-07-31T05:41:30.590Z,25.10
2018-07-31T05:43:59.006Z,25.40
2018-07-31T05:46:27.417Z,25.40
2018-07-31T05:51:23.939Z,26.10
2018-07-31T05:53:52.531Z,26.60
2018-07-31T05:56:21.656Z,27.10
2018-07-31T05:58:50.419Z,27.50
2018-07-31T06:01:20.567Z,28.10
2018-07-31T06:03:50.014Z,28.30
2018-07-31T06:06:19.705Z,28.30
2018-07-31T06:08:49.208Z,28.50
2018-07-31T06:11:18.880Z,28.70
2018-07-31T06:13:48.578Z,28.90
2018-07-31T06:16:17.271Z,29.50
2018-07-31T06:18:45.903Z,29.60
2018-07-31T06:21:14.688Z,29.60
2018-07-31T06:23:43.038Z,29.40
2018-07-31T06:26:11.779Z,29.50
2018-07-31T06:28:40.142Z,29.70
2018-07-31T06:31:09.267Z,29.80
2018-07-31T06:33:37.718Z,29.70
2018-07-31T06:36:06.304Z,30.00
2018-07-31T06:38:34.686Z,30.40
2018-07-31T06:41:03.051Z,30.80
2018-07-31T06:43:31.806Z,31.00
2018-07-31T06:46:01.136Z,31.00
2018-07-31T06:48:29.577Z,30.80
2018-07-31T06:50:57.962Z,30.90
2018-07-31T06:55:54.794Z,31.50
2018-07-31T06:58:23.742Z,31.60
2018-07-31T07:00:52.123Z,31.90
2018-07-31T07:03:20.527Z,32.00
2018-07-31T07:05:49.198Z,32.40
2018-07-31T07:08:17.598Z,33.00
2018-07-31T07:10:46.359Z,32.80
2018-07-31T07:13:14.741Z,32.90
2018-07-31T07:15:43.231Z,33.10
2018-07-31T07:18:12.206Z,33.10
2018-07-31T07:20:40.617Z,33.80
2018-07-31T07:23:09.275Z,34.40
2018-07-31T07:25:37.659Z,34.00
2018-07-31T07:28:06.082Z,34.60
2018-07-31T07:33:02.591Z,34.10
2018-07-31T07:35:30.992Z,34.70
2018-07-31T07:37:59.475Z,35.40
2018-07-31T07:40:28.379Z,35.70
2018-07-31T07:42:56.751Z,35.90
2018-07-31T07:45:25.331Z,36.00
2018-07-31T07:47:53.714Z,35.90
2018-07-31T07:50:22.422Z,35.60
2018-07-31T07:55:19.983Z,34.90
2018-07-31T08:00:16.491Z,35.20
2018-07-31T08:02:45.229Z,35.30
2018-07-31T08:05:13.859Z,35.40
2018-07-31T08:07:42.294Z,35.30
2018-07-31T08:10:11.422Z,35.10
2018-07-31T08:12:39.807Z,35.10
2018-07-31T08:15:08.318Z,35.30
2018-07-31T08:17:36.979Z,35.40
2018-07-31T08:20:06.375Z,35.40
2018-07-31T08:22:35.447Z,35.20
2018-07-31T08:25:04.460Z,35.60
2018-07-31T08:27:34.039Z,36.00
2018-07-31T08:30:02.616Z,35.90
2018-07-31T08:32:31.812Z,36.10
2018-07-31T08:35:00.282Z,36.30
2018-07-31T08:37:29.320Z,35.60
2018-07-31T08:39:57.706Z,35.30
2018-07-31T08:42:26.120Z,35.50
2018-07-31T08:44:54.799Z,36.00
2018-07-31T08:47:23.192Z,36.50
2018-07-31T08:49:51.835Z,36.50
2018-07-31T08:52:20.729Z,36.40
2018-07-31T08:54:49.419Z,36.20
2018-07-31T08:57:17.787Z,36.30
2018-07-31T08:59:46.170Z,36.70
2018-07-31T09:02:14.578Z,36.50
2018-07-31T09:04:43.342Z,36.40
2018-07-31T09:07:12.003Z,35.40
2018-07-31T09:09:40.704Z,36.00
2018-07-31T09:12:09.785Z,35.50
2018-07-31T09:14:38.566Z,36.10
2018-07-31T09:17:07.037Z,35.90
2018-07-31T09:19:35.394Z,36.70
2018-07-31T09:22:04.439Z,36.60
2018-07-31T09:24:32.864Z,36.70
2018-07-31T09:27:01.672Z,37.00
2018-07-31T09:29:30.060Z,37.40
2018-07-31T09:31:58.766Z,37.20
2018-07-31T09:34:27.950Z,37.40
2018-07-31T09:36:56.351Z,37.90
2018-07-31T09:39:24.983Z,36.80
2018-07-31T09:41:53.354Z,36.30
2018-07-31T09:44:21.775Z,37.00
2018-07-31T09:46:50.143Z,37.10
2018-07-31T09:49:18.883Z,37.20
2018-07-31T09:51:48.862Z,36.60
2018-07-31T09:54:17.499Z,37.20
2018-07-31T09:56:45.954Z,37.80
2018-07-31T09:59:14.355Z,38.40
2018-07-31T10:01:43.054Z,38.70
2018-07-31T10:04:11.470Z,39.20
2018-07-31T10:06:40.427Z,39.70
2018-07-31T10:09:10.191Z,39.60
2018-07-31T10:11:38.887Z,39.00
2018-07-31T10:14:07.687Z,38.00
2018-07-31T10:16:36.351Z,37.60
2018-07-31T10:19:05.056Z,38.20
2018-07-31T10:21:33.651Z,36.80
2018-07-31T10:24:02.086Z,37.10
2018-07-31T10:26:30.682Z,37.40
2018-07-31T10:28:59.435Z,38.20
2018-07-31T10:31:28.624Z,38.20
2018-07-31T10:34:03.539Z,39.10
2018-07-31T10:36:32.539Z,39.80
2018-07-31T10:39:00.935Z,40.30
2018-07-31T10:41:29.615Z,40.20
2018-07-31T10:43:58.091Z,40.70
2018-07-31T10:46:26.390Z,40.90
2018-07-31T10:48:55.114Z,40.90
2018-07-31T10:51:24.464Z,41.10
2018-07-31T10:53:52.855Z,40.60
2018-07-31T10:56:21.603Z,39.20
2018-07-31T10:58:50.223Z,39.20
2018-07-31T11:01:18.643Z,39.90
2018-07-31T11:06:15.451Z,40.90
2018-07-31T11:08:43.851Z,41.20
2018-07-31T11:11:12.255Z,41.70
2018-07-31T11:13:41.422Z,42.20
2018-07-31T11:16:09.871Z,42.60
2018-07-31T11:18:38.778Z,43.00
2018-07-31T11:21:07.686Z,43.10
2018-07-31T11:23:39.278Z,42.80
2018-07-31T11:26:08.036Z,42.60
2018-07-31T11:28:36.691Z,42.60
2018-07-31T11:31:05.994Z,42.70
2018-07-31T11:33:34.618Z,42.80
2018-07-31T11:36:03.702Z,42.90
2018-07-31T11:38:32.193Z,43.30
2018-07-31T11:41:01.370Z,42.70
2018-07-31T11:43:30.044Z,42.60
2018-07-31T11:45:58.427Z,43.10
2018-07-31T11:48:26.917Z,43.30
2018-07-31T11:50:55.330Z,43.00
2018-07-31T11:53:23.775Z,43.20
2018-07-31T11:55:52.245Z,43.40
2018-07-31T11:58:22.165Z,43.40
2018-07-31T12:00:50.547Z,43.20
2018-07-31T12:03:19.482Z,43.60
2018-07-31T12:05:49.518Z,43.50
2018-07-31T12:08:19.281Z,43.80
2018-07-31T12:10:48.849Z,44.10
2018-07-31T12:13:18.816Z,44.00
2018-07-31T12:15:48.486Z,44.10
2018-07-31T12:18:18.950Z,43.50
2018-07-31T12:20:49.968Z,43.50
2018-07-31T12:23:19.990Z,43.30
2018-07-31T12:25:50.091Z,43.00
2018-07-31T12:28:19.331Z,43.30
2018-07-31T12:30:48.671Z,43.20
2018-07-31T12:33:18.077Z,43.60
2018-07-31T12:35:49.279Z,43.90
2018-07-31T12:38:18.523Z,44.30
2018-07-31T12:40:47.123Z,43.90
2018-07-31T12:43:15.884Z,43.20
2018-07-31T12:45:45.491Z,41.30
2018-07-31T12:48:14.272Z,41.00
2018-07-31T12:50:42.652Z,40.90
2018-07-31T12:53:12.326Z,41.70
2018-07-31T12:55:41.288Z,42.10
2018-07-31T12:58:09.687Z,42.40
2018-07-31T13:00:38.751Z,41.90
2018-07-31T13:03:07.419Z,41.50
2018-07-31T13:05:36.225Z,41.50
2018-07-31T13:08:05.303Z,41.80
2018-07-31T13:10:33.981Z,40.70
2018-07-31T13:13:02.366Z,39.30
2018-07-31T13:15:30.734Z,39.30
2018-07-31T13:17:59.163Z,39.00
2018-07-31T13:20:27.799Z,39.20
2018-07-31T13:22:56.520Z,39.50
2018-07-31T13:25:25.272Z,39.00
2018-07-31T13:27:54.540Z,38.90
2018-07-31T13:30:23.134Z,39.20
2018-07-31T13:32:51.840Z,39.40
2018-07-31T13:35:20.243Z,39.50
2018-07-31T13:37:49.062Z,39.50
2018-07-31T13:42:46.395Z,39.00
2018-07-31T13:45:14.990Z,38.80
2018-07-31T13:47:43.490Z,38.50
2018-07-31T13:50:11.882Z,38.30
2018-07-31T13:52:44.877Z,38.10
2018-07-31T13:55:13.579Z,38.00
2018-07-31T13:57:42.441Z,38.10
2018-07-31T14:00:11.036Z,38.20
2018-07-31T14:02:40.259Z,37.90
2018-07-31T14:05:08.981Z,37.70
2018-07-31T14:07:38.266Z,37.70
2018-07-31T14:10:07.307Z,37.70
2018-07-31T14:12:36.473Z,37.70
2018-07-31T14:15:05.842Z,37.50
2018-07-31T14:17:35.675Z,37.60
2018-07-31T14:20:04.563Z,37.40
2018-07-31T14:22:34.147Z,37.40
2018-07-31T14:25:03.047Z,37.30
2018-07-31T14:27:31.454Z,37.20
2018-07-31T14:30:00.879Z,37.20
2018-07-31T14:32:30.219Z,37.10
2018-07-31T14:34:58.920Z,37.10
2018-07-31T14:37:28.712Z,37.00
2018-07-31T14:39:57.958Z,36.80
2018-07-31T14:42:27.490Z,36.90
2018-07-31T14:47:24.991Z,36.80
2018-07-31T14:49:53.395Z,36.90
2018-07-31T14:52:22.317Z,36.70
2018-07-31T14:57:19.791Z,36.70
2018-07-31T14:59:48.719Z,36.60
2018-07-31T15:02:17.300Z,36.60
2018-07-31T15:04:46.098Z,36.50
2018-07-31T15:07:14.493Z,36.50
2018-07-31T15:09:43.119Z,36.50
2018-07-31T15:12:11.623Z,36.30
2018-07-31T15:14:40.268Z,36.30
2018-07-31T15:17:08.787Z,36.20
2018-07-31T15:19:37.210Z,36.20
2018-07-31T15:22:05.721Z,36.00
2018-07-31T15:24:34.661Z,36.00
2018-07-31T15:27:03.433Z,36.00
2018-07-31T15:29:32.073Z,36.10
2018-07-31T15:32:00.567Z,36.00
2018-07-31T15:34:29.348Z,36.00
2018-07-31T15:36:58.285Z,36.00
2018-07-31T15:39:27.481Z,36.00
2018-07-31T15:41:55.922Z,36.00
2018-07-31T15:44:24.319Z,35.90
2018-07-31T15:46:52.698Z,35.90
2018-07-31T15:49:21.211Z,35.80
2018-07-31T15:51:50.159Z,35.80
2018-07-31T15:54:18.775Z,35.80
2018-07-31T15:56:48.058Z,35.70
2018-07-31T15:59:16.714Z,35.70
2018-07-31T16:01:45.394Z,35.60
2018-07-31T16:04:14.575Z,35.50
2018-07-31T16:06:44.666Z,35.60
2018-07-31T16:09:13.326Z,35.50
2018-07-31T16:11:41.827Z,35.50
2018-07-31T16:14:10.406Z,35.40
2018-07-31T16:16:38.906Z,35.40
2018-07-31T16:19:07.706Z,35.40
2018-07-31T16:21:36.675Z,35.30
2018-07-31T16:24:05.365Z,35.20
2018-07-31T16:26:34.041Z,35.10
2018-07-31T16:29:02.531Z,35.10
2018-07-31T16:31:31.779Z,35.00
2018-07-31T16:34:00.564Z,35.00
2018-07-31T16:36:29.134Z,35.00
2018-07-31T16:38:57.742Z,35.00
2018-07-31T16:41:26.386Z,34.80
2018-07-31T16:43:54.818Z,34.70
2018-07-31T16:46:23.538Z,34.70
2018-07-31T16:48:52.172Z,34.70
2018-07-31T16:51:20.565Z,34.60
2018-07-31T16:53:49.195Z,34.50
2018-07-31T16:56:17.576Z,34.50
2018-07-31T16:58:46.567Z,34.40
2018-07-31T17:01:14.972Z,34.40
2018-07-31T17:06:12.282Z,34.30
2018-07-31T17:08:41.324Z,34.20
2018-07-31T17:11:10.087Z,34.20
2018-07-31T17:13:38.575Z,34.20
2018-07-31T17:16:07.280Z,34.10
2018-07-31T17:21:03.785Z,34.00
2018-07-31T17:23:32.220Z,34.00
2018-07-31T17:26:00.631Z,33.80
2018-07-31T17:28:29.196Z,33.80
2018-07-31T17:30:58.116Z,33.70
2018-07-31T17:33:27.143Z,33.60
2018-07-31T17:35:56.205Z,33.60
2018-07-31T17:38:24.575Z,33.50
2018-07-31T17:40:53.264Z,33.40
2018-07-31T17:43:21.641Z,33.40
2018-07-31T17:45:50.137Z,33.30
2018-07-31T17:48:18.611Z,33.20
2018-07-31T17:50:47.020Z,33.10
2018-07-31T17:53:15.392Z,33.00
2018-07-31T17:55:43.882Z,32.90
2018-07-31T17:58:12.493Z,32.80
2018-07-31T18:00:40.842Z,32.80
2018-07-31T18:03:09.467Z,32.70
2018-07-31T18:05:37.832Z,32.60
2018-07-31T18:10:34.851Z,32.40
2018-07-31T18:13:03.226Z,32.30
2018-07-31T18:15:32.315Z,32.20
2018-07-31T18:18:00.792Z,32.10
2018-07-31T18:20:29.413Z,32.00
2018-07-31T18:22:57.779Z,31.90
2018-07-31T18:25:26.483Z,31.90
2018-07-31T18:27:55.204Z,31.80
2018-07-31T18:30:23.635Z,31.70
2018-07-31T18:32:52.063Z,31.60
2018-07-31T18:35:22.068Z,31.50
2018-07-31T18:37:52.307Z,31.50
2018-07-31T18:40:20.758Z,31.40
2018-07-31T18:42:49.783Z,31.30
2018-07-31T18:45:18.193Z,31.20
2018-07-31T18:47:46.846Z,31.20
2018-07-31T18:50:15.320Z,31.10
2018-07-31T18:52:43.787Z,31.00
2018-07-31T18:55:12.430Z,31.00
2018-07-31T18:57:40.995Z,30.90
2018-07-31T19:00:09.459Z,30.80
2018-07-31T19:02:37.880Z,30.70
2018-07-31T19:05:06.406Z,30.60
2018-07-31T19:07:34.919Z,30.50
2018-07-31T19:10:03.431Z,30.40
2018-07-31T19:12:32.055Z,30.30
2018-07-31T19:15:00.790Z,30.20
2018-07-31T19:17:29.503Z,30.10
2018-07-31T19:19:58.211Z,30.00
2018-07-31T19:22:26.963Z,30.00
2018-07-31T19:24:55.727Z,29.90
2018-07-31T19:27:24.372Z,29.80
2018-07-31T19:29:52.807Z,29.80
2018-07-31T19:32:21.307Z,29.80
2018-07-31T19:34:49.869Z,29.70
2018-07-31T19:37:18.242Z,29.60
2018-07-31T19:39:46.631Z,29.60
2018-07-31T19:42:15.096Z,29.50
2018-07-31T19:44:43.758Z,29.40
2018-07-31T19:47:12.354Z,29.40
2018-07-31T19:49:40.871Z,29.40
2018-07-31T19:52:09.685Z,29.20
2018-07-31T19:54:38.578Z,29.00
2018-07-31T19:57:07.623Z,28.80
2018-07-31T19:59:36.358Z,28.60
2018-07-31T20:02:06.302Z,28.50
2018-07-31T20:04:34.687Z,28.40
2018-07-31T20:07:03.099Z,28.20
2018-07-31T20:09:31.760Z,28.20
2018-07-31T20:12:00.162Z,28.20
2018-07-31T20:14:28.838Z,28.20
2018-07-31T20:16:57.248Z,28.10
2018-07-31T20:19:25.962Z,28.10
2018-07-31T20:21:55.035Z,27.90
2018-07-31T20:24:23.456Z,27.80
2018-07-31T20:26:52.099Z,27.80
2018-07-31T20:29:20.506Z,27.90
2018-07-31T20:31:49.188Z,27.90
2018-07-31T20:34:17.558Z,28.00
2018-07-31T20:36:46.231Z,28.00
2018-07-31T20:39:14.615Z,28.00
2018-07-31T20:41:43.662Z,28.10
2018-07-31T20:44:12.494Z,28.10
2018-07-31T20:46:40.907Z,28.10
2018-07-31T20:49:09.648Z,28.20
2018-07-31T20:51:38.688Z,28.10
2018-07-31T20:54:07.535Z,28.10
2018-07-31T20:56:36.051Z,28.10
2018-07-31T20:59:05.010Z,28.10
2018-07-31T21:01:33.430Z,28.10
2018-07-31T21:04:01.791Z,28.10
2018-07-31T21:06:33.413Z,28.00
2018-07-31T21:09:05.320Z,28.00
2018-07-31T21:11:40.149Z,28.00
2018-07-31T21:14:11.395Z,28.00
2018-07-31T21:16:42.157Z,27.90
2018-07-31T21:19:13.432Z,27.90
2018-07-31T21:21:42.222Z,27.90
2018-07-31T21:24:10.643Z,27.90
2018-07-31T21:26:39.598Z,27.80
2018-07-31T21:29:07.970Z,27.70
2018-07-31T21:31:37.115Z,27.60
2018-07-31T21:34:06.081Z,27.60
2018-07-31T21:36:34.743Z,27.60
2018-07-31T21:39:03.260Z,27.60
2018-07-31T21:41:31.691Z,27.60
2018-07-31T21:48:56.739Z,27.50
2018-07-31T21:51:25.444Z,27.40
2018-07-31T21:53:54.315Z,27.40
2018-07-31T21:56:22.742Z,27.40
2018-07-31T21:58:51.991Z,27.40
2018-07-31T22:01:20.709Z,27.40
2018-07-31T22:03:49.095Z,27.40
2018-07-31T22:06:18.096Z,27.40
2018-07-31T22:08:46.487Z,27.40
2018-07-31T22:11:15.167Z,27.40
2018-07-31T22:13:43.595Z,27.40
2018-07-31T22:16:12.247Z,27.40
2018-07-31T22:18:40.710Z,27.20
2018-07-31T22:21:09.952Z,27.10
2018-07-31T22:23:38.618Z,27.00
2018-07-31T22:26:07.026Z,27.00
2018-07-31T22:28:35.707Z,27.00
2018-07-31T22:31:04.966Z,26.80
2018-07-31T22:33:33.387Z,26.70
2018-07-31T22:36:02.255Z,26.70
2018-07-31T22:38:30.630Z,26.60
2018-07-31T22:40:59.641Z,26.60
2018-07-31T22:43:28.380Z,26.50
2018-07-31T22:45:56.776Z,26.60
2018-07-31T22:48:25.159Z,26.50
2018-07-31T22:50:53.880Z,26.50
2018-07-31T22:53:22.235Z,26.50
2018-07-31T22:55:51.371Z,26.50
2018-07-31T22:58:20.048Z,26.40
2018-07-31T23:00:48.689Z,26.40
2018-07-31T23:03:17.566Z,26.30
2018-07-31T23:05:47.228Z,26.30
2018-07-31T23:08:15.706Z,26.20
2018-07-31T23:10:44.372Z,26.20
2018-07-31T23:13:13.287Z,26.10
2018-07-31T23:15:42.680Z,26.00
2018-07-31T23:18:11.835Z,26.00
2018-07-31T23:20:40.496Z,26.00
2018-07-31T23:23:08.879Z,26.00
2018-07-31T23:25:37.521Z,25.80
2018-07-31T23:28:06.562Z,25.70
2018-07-31T23:33:03.403Z,25.50
2018-07-31T23:35:32.067Z,25.60
2018-07-31T23:38:00.471Z,25.60
2018-07-31T23:40:28.852Z,25.50
2018-07-31T23:45:25.339Z,25.50
2018-07-31T23:47:53.978Z,25.40
2018-07-31T23:50:23.060Z,25.40
2018-07-31T23:52:51.462Z,25.40
2018-07-31T23:57:48.249Z,25.40
